sensor_id;sensor_type;location;lat;lon;timestamp;P1;durP1;ratioP1;P2;durP2;ratioP2
66946;SDS011;53853;51.982;5.928;2023-04-06T00:00:40;9.23;;;7.03;;
66946;SDS011;53853;51.982;5.928;2023-04-06T00:03:10;10.55;;;7.65;;
66946;SDS011;53853;51.982;5.928;2023-04-06T00:05:42;14.40;;;8.30;;
66946;SDS011;53853;51.982;5.928;2023-04-06T00:08:12;10.13;;;7.55;;
66946;SDS011;53853;51.982;5.928;2023-04-06T00:10:42;12.15;;;7.95;;
66946;SDS011;53853;51.982;5.928;2023-04-06T00:13:12;10.80;;;8.05;;
66946;SDS011;53853;51.982;5.928;2023-04-06T00:15:41;13.40;;;8.77;;
66946;SDS011;53853;51.982;5.928;2023-04-06T00:18:11;10.02;;;7.68;;
66946;SDS011;53853;51.982;5.928;2023-04-06T00:20:44;11.35;;;8.18;;
66946;SDS011;53853;51.982;5.928;2023-04-06T00:23:14;10.90;;;7.90;;
66946;SDS011;53853;51.982;5.928;2023-04-06T00:25:44;10.52;;;8.15;;
66946;SDS011;53853;51.982;5.928;2023-04-06T00:28:13;11.00;;;7.57;;
66946;SDS011;53853;51.982;5.928;2023-04-06T00:30:46;12.18;;;8.55;;
66946;SDS011;53853;51.982;5.928;2023-04-06T00:33:18;10.23;;;7.80;;
66946;SDS011;53853;51.982;5.928;2023-04-06T00:35:50;10.57;;;8.32;;
66946;SDS011;53853;51.982;5.928;2023-04-06T00:38:21;11.63;;;7.97;;
66946;SDS011;53853;51.982;5.928;2023-04-06T00:40:51;10.25;;;8.13;;
66946;SDS011;53853;51.982;5.928;2023-04-06T00:43:21;10.20;;;7.50;;
66946;SDS011;53853;51.982;5.928;2023-04-06T00:45:51;10.98;;;8.02;;
66946;SDS011;53853;51.982;5.928;2023-04-06T00:48:21;13.48;;;7.70;;
66946;SDS011;53853;51.982;5.928;2023-04-06T00:50:53;14.35;;;8.32;;
66946;SDS011;53853;51.982;5.928;2023-04-06T00:53:23;13.57;;;7.57;;
66946;SDS011;53853;51.982;5.928;2023-04-06T00:55:53;14.57;;;8.00;;
66946;SDS011;53853;51.982;5.928;2023-04-06T00:58:23;10.57;;;7.50;;
66946;SDS011;53853;51.982;5.928;2023-04-06T01:01:01;12.02;;;8.35;;
66946;SDS011;53853;51.982;5.928;2023-04-06T01:03:33;10.40;;;7.75;;
66946;SDS011;53853;51.982;5.928;2023-04-06T01:06:06;12.02;;;8.00;;
66946;SDS011;53853;51.982;5.928;2023-04-06T01:08:38;10.20;;;7.68;;
66946;SDS011;53853;51.982;5.928;2023-04-06T01:11:18;11.05;;;8.65;;
66946;SDS011;53853;51.982;5.928;2023-04-06T01:13:50;11.65;;;8.00;;
66946;SDS011;53853;51.982;5.928;2023-04-06T01:16:40;9.52;;;7.05;;
66946;SDS011;53853;51.982;5.928;2023-04-06T01:19:14;10.55;;;8.20;;
66946;SDS011;53853;51.982;5.928;2023-04-06T01:21:50;13.60;;;8.65;;
66946;SDS011;53853;51.982;5.928;2023-04-06T01:24:32;11.80;;;8.43;;
66946;SDS011;53853;51.982;5.928;2023-04-06T01:27:10;12.60;;;8.05;;
66946;SDS011;53853;51.982;5.928;2023-04-06T01:29:57;11.55;;;8.30;;
66946;SDS011;53853;51.982;5.928;2023-04-06T01:32:45;10.65;;;8.00;;
66946;SDS011;53853;51.982;5.928;2023-04-06T01:35:20;11.38;;;7.90;;
66946;SDS011;53853;51.982;5.928;2023-04-06T01:37:59;10.77;;;8.07;;
66946;SDS011;53853;51.982;5.928;2023-04-06T01:40:35;12.07;;;8.25;;
66946;SDS011;53853;51.982;5.928;2023-04-06T01:43:05;11.17;;;8.27;;
66946;SDS011;53853;51.982;5.928;2023-04-06T01:46:04;13.93;;;8.32;;
66946;SDS011;53853;51.982;5.928;2023-04-06T01:48:38;10.05;;;7.47;;
66946;SDS011;53853;51.982;5.928;2023-04-06T01:51:17;9.23;;;7.25;;
66946;SDS011;53853;51.982;5.928;2023-04-06T01:53:54;14.43;;;9.32;;
66946;SDS011;53853;51.982;5.928;2023-04-06T01:56:37;14.10;;;8.93;;
66946;SDS011;53853;51.982;5.928;2023-04-06T01:59:21;11.45;;;7.75;;
66946;SDS011;53853;51.982;5.928;2023-04-06T02:01:51;10.05;;;7.75;;
66946;SDS011;53853;51.982;5.928;2023-04-06T02:04:23;12.82;;;8.63;;
66946;SDS011;53853;51.982;5.928;2023-04-06T02:07:03;9.80;;;8.10;;
66946;SDS011;53853;51.982;5.928;2023-04-06T02:09:33;11.35;;;8.30;;
66946;SDS011;53853;51.982;5.928;2023-04-06T02:12:10;9.75;;;8.02;;
66946;SDS011;53853;51.982;5.928;2023-04-06T02:14:40;9.95;;;8.25;;
66946;SDS011;53853;51.982;5.928;2023-04-06T02:17:10;13.75;;;8.68;;
66946;SDS011;53853;51.982;5.928;2023-04-06T02:19:40;10.75;;;7.93;;
66946;SDS011;53853;51.982;5.928;2023-04-06T02:22:11;13.70;;;8.57;;
66946;SDS011;53853;51.982;5.928;2023-04-06T02:24:41;11.38;;;9.50;;
66946;SDS011;53853;51.982;5.928;2023-04-06T02:27:13;12.60;;;8.40;;
66946;SDS011;53853;51.982;5.928;2023-04-06T02:29:46;11.30;;;8.52;;
66946;SDS011;53853;51.982;5.928;2023-04-06T02:32:19;15.02;;;8.80;;
66946;SDS011;53853;51.982;5.928;2023-04-06T02:34:49;10.57;;;7.75;;
66946;SDS011;53853;51.982;5.928;2023-04-06T02:37:20;12.30;;;8.88;;
66946;SDS011;53853;51.982;5.928;2023-04-06T02:39:50;14.73;;;9.18;;
66946;SDS011;53853;51.982;5.928;2023-04-06T02:42:24;12.57;;;9.18;;
66946;SDS011;53853;51.982;5.928;2023-04-06T02:44:54;13.02;;;8.95;;
66946;SDS011;53853;51.982;5.928;2023-04-06T02:47:28;11.93;;;8.65;;
66946;SDS011;53853;51.982;5.928;2023-04-06T02:49:58;12.23;;;9.02;;
66946;SDS011;53853;51.982;5.928;2023-04-06T02:52:44;15.35;;;9.18;;
66946;SDS011;53853;51.982;5.928;2023-04-06T02:55:14;11.07;;;7.93;;
66946;SDS011;53853;51.982;5.928;2023-04-06T02:57:48;11.02;;;8.00;;
66946;SDS011;53853;51.982;5.928;2023-04-06T03:00:22;11.40;;;8.57;;
66946;SDS011;53853;51.982;5.928;2023-04-06T03:02:52;11.93;;;9.05;;
66946;SDS011;53853;51.982;5.928;2023-04-06T03:05:23;12.10;;;8.65;;
66946;SDS011;53853;51.982;5.928;2023-04-06T03:07:53;11.50;;;7.82;;
66946;SDS011;53853;51.982;5.928;2023-04-06T03:10:35;11.82;;;9.00;;
66946;SDS011;53853;51.982;5.928;2023-04-06T03:13:08;11.68;;;9.23;;
66946;SDS011;53853;51.982;5.928;2023-04-06T03:15:45;10.63;;;8.98;;
66946;SDS011;53853;51.982;5.928;2023-04-06T03:18:20;12.82;;;9.27;;
66946;SDS011;53853;51.982;5.928;2023-04-06T03:20:52;12.98;;;9.05;;
66946;SDS011;53853;51.982;5.928;2023-04-06T03:23:29;12.93;;;9.02;;
66946;SDS011;53853;51.982;5.928;2023-04-06T03:26:00;11.80;;;8.85;;
66946;SDS011;53853;51.982;5.928;2023-04-06T03:28:33;12.15;;;8.95;;
66946;SDS011;53853;51.982;5.928;2023-04-06T03:31:05;12.13;;;9.23;;
66946;SDS011;53853;51.982;5.928;2023-04-06T03:33:42;12.80;;;8.65;;
66946;SDS011;53853;51.982;5.928;2023-04-06T03:36:19;11.40;;;9.25;;
66946;SDS011;53853;51.982;5.928;2023-04-06T03:38:49;12.55;;;8.43;;
66946;SDS011;53853;51.982;5.928;2023-04-06T03:41:19;15.65;;;9.70;;
66946;SDS011;53853;51.982;5.928;2023-04-06T03:44:12;11.25;;;8.80;;
66946;SDS011;53853;51.982;5.928;2023-04-06T03:46:43;15.25;;;10.10;;
66946;SDS011;53853;51.982;5.928;2023-04-06T03:49:13;11.57;;;8.85;;
66946;SDS011;53853;51.982;5.928;2023-04-06T03:51:47;10.40;;;7.72;;
66946;SDS011;53853;51.982;5.928;2023-04-06T03:54:17;12.18;;;9.32;;
66946;SDS011;53853;51.982;5.928;2023-04-06T03:56:47;13.70;;;10.27;;
66946;SDS011;53853;51.982;5.928;2023-04-06T03:59:20;11.18;;;8.23;;
66946;SDS011;53853;51.982;5.928;2023-04-06T04:01:52;10.73;;;8.75;;
66946;SDS011;53853;51.982;5.928;2023-04-06T04:04:23;12.43;;;8.52;;
66946;SDS011;53853;51.982;5.928;2023-04-06T04:06:53;9.73;;;8.20;;
66946;SDS011;53853;51.982;5.928;2023-04-06T04:09:22;11.43;;;9.43;;
66946;SDS011;53853;51.982;5.928;2023-04-06T04:11:52;13.05;;;10.13;;
66946;SDS011;53853;51.982;5.928;2023-04-06T04:14:25;11.38;;;8.95;;
66946;SDS011;53853;51.982;5.928;2023-04-06T04:16:55;13.82;;;9.23;;
66946;SDS011;53853;51.982;5.928;2023-04-06T04:19:25;11.68;;;9.57;;
66946;SDS011;53853;51.982;5.928;2023-04-06T04:21:56;14.55;;;9.55;;
66946;SDS011;53853;51.982;5.928;2023-04-06T04:24:32;14.60;;;8.75;;
66946;SDS011;53853;51.982;5.928;2023-04-06T04:27:02;13.35;;;8.43;;
66946;SDS011;53853;51.982;5.928;2023-04-06T04:29:35;14.63;;;9.98;;
66946;SDS011;53853;51.982;5.928;2023-04-06T04:32:10;14.25;;;9.60;;
66946;SDS011;53853;51.982;5.928;2023-04-06T04:34:40;12.52;;;9.35;;
66946;SDS011;53853;51.982;5.928;2023-04-06T04:37:19;17.85;;;9.48;;
66946;SDS011;53853;51.982;5.928;2023-04-06T04:39:53;13.70;;;9.38;;
66946;SDS011;53853;51.982;5.928;2023-04-06T04:42:23;12.57;;;9.75;;
66946;SDS011;53853;51.982;5.928;2023-04-06T04:44:58;12.65;;;10.15;;
66946;SDS011;53853;51.982;5.928;2023-04-06T04:47:36;12.68;;;9.25;;
66946;SDS011;53853;51.982;5.928;2023-04-06T04:50:07;13.18;;;10.30;;
66946;SDS011;53853;51.982;5.928;2023-04-06T04:52:42;12.00;;;9.57;;
66946;SDS011;53853;51.982;5.928;2023-04-06T04:55:16;13.57;;;10.07;;
66946;SDS011;53853;51.982;5.928;2023-04-06T04:57:49;16.60;;;9.85;;
66946;SDS011;53853;51.982;5.928;2023-04-06T05:00:27;13.75;;;9.93;;
66946;SDS011;53853;51.982;5.928;2023-04-06T05:02:58;14.20;;;10.05;;
66946;SDS011;53853;51.982;5.928;2023-04-06T05:05:31;13.70;;;9.95;;
66946;SDS011;53853;51.982;5.928;2023-04-06T05:08:01;12.45;;;9.73;;
66946;SDS011;53853;51.982;5.928;2023-04-06T05:10:44;17.23;;;10.20;;
66946;SDS011;53853;51.982;5.928;2023-04-06T05:13:14;14.70;;;10.57;;
66946;SDS011;53853;51.982;5.928;2023-04-06T05:15:49;13.30;;;10.15;;
66946;SDS011;53853;51.982;5.928;2023-04-06T05:18:23;13.85;;;10.60;;
66946;SDS011;53853;51.982;5.928;2023-04-06T05:20:55;11.57;;;8.90;;
66946;SDS011;53853;51.982;5.928;2023-04-06T05:23:43;14.45;;;11.07;;
66946;SDS011;53853;51.982;5.928;2023-04-06T05:26:13;13.25;;;10.48;;
66946;SDS011;53853;51.982;5.928;2023-04-06T05:28:43;11.32;;;9.45;;
66946;SDS011;53853;51.982;5.928;2023-04-06T05:31:16;15.35;;;11.43;;
66946;SDS011;53853;51.982;5.928;2023-04-06T05:33:49;14.82;;;10.57;;
66946;SDS011;53853;51.982;5.928;2023-04-06T05:36:29;15.20;;;10.82;;
66946;SDS011;53853;51.982;5.928;2023-04-06T05:39:03;15.30;;;10.32;;
66946;SDS011;53853;51.982;5.928;2023-04-06T05:41:54;11.98;;;8.98;;
66946;SDS011;53853;51.982;5.928;2023-04-06T05:44:50;13.73;;;9.95;;
66946;SDS011;53853;51.982;5.928;2023-04-06T05:47:23;12.68;;;9.98;;
66946;SDS011;53853;51.982;5.928;2023-04-06T05:50:01;14.82;;;11.15;;
66946;SDS011;53853;51.982;5.928;2023-04-06T05:52:35;13.77;;;11.20;;
66946;SDS011;53853;51.982;5.928;2023-04-06T05:55:07;13.10;;;10.25;;
66946;SDS011;53853;51.982;5.928;2023-04-06T05:57:40;12.50;;;9.57;;
66946;SDS011;53853;51.982;5.928;2023-04-06T06:00:11;16.30;;;11.10;;
66946;SDS011;53853;51.982;5.928;2023-04-06T06:02:54;14.52;;;10.30;;
66946;SDS011;53853;51.982;5.928;2023-04-06T06:05:28;15.90;;;11.07;;
66946;SDS011;53853;51.982;5.928;2023-04-06T06:08:05;16.48;;;12.10;;
66946;SDS011;53853;51.982;5.928;2023-04-06T06:10:36;12.95;;;10.43;;
66946;SDS011;53853;51.982;5.928;2023-04-06T06:13:11;18.20;;;12.50;;
66946;SDS011;53853;51.982;5.928;2023-04-06T06:15:41;12.02;;;9.63;;
66946;SDS011;53853;51.982;5.928;2023-04-06T06:18:14;18.83;;;10.90;;
66946;SDS011;53853;51.982;5.928;2023-04-06T06:20:46;17.05;;;10.68;;
66946;SDS011;53853;51.982;5.928;2023-04-06T06:23:16;15.02;;;11.90;;
66946;SDS011;53853;51.982;5.928;2023-04-06T06:25:46;23.05;;;12.65;;
66946;SDS011;53853;51.982;5.928;2023-04-06T06:28:16;17.98;;;12.32;;
66946;SDS011;53853;51.982;5.928;2023-04-06T06:30:46;17.42;;;12.20;;
66946;SDS011;53853;51.982;5.928;2023-04-06T06:35:54;21.20;;;14.23;;
66946;SDS011;53853;51.982;5.928;2023-04-06T06:38:24;16.25;;;11.65;;
66946;SDS011;53853;51.982;5.928;2023-04-06T06:40:54;17.25;;;13.45;;
66946;SDS011;53853;51.982;5.928;2023-04-06T06:43:26;16.27;;;12.90;;
66946;SDS011;53853;51.982;5.928;2023-04-06T06:46:01;17.63;;;11.70;;
66946;SDS011;53853;51.982;5.928;2023-04-06T06:48:34;17.35;;;12.73;;
66946;SDS011;53853;51.982;5.928;2023-04-06T06:51:04;22.02;;;14.07;;
66946;SDS011;53853;51.982;5.928;2023-04-06T06:53:35;19.98;;;13.10;;
66946;SDS011;53853;51.982;5.928;2023-04-06T06:56:05;19.13;;;13.27;;
66946;SDS011;53853;51.982;5.928;2023-04-06T06:58:35;18.05;;;13.57;;
66946;SDS011;53853;51.982;5.928;2023-04-06T07:01:05;17.83;;;12.45;;
66946;SDS011;53853;51.982;5.928;2023-04-06T07:03:38;17.45;;;12.38;;
66946;SDS011;53853;51.982;5.928;2023-04-06T07:06:08;19.55;;;13.15;;
66946;SDS011;53853;51.982;5.928;2023-04-06T07:08:39;17.58;;;13.55;;
66946;SDS011;53853;51.982;5.928;2023-04-06T07:11:09;16.40;;;11.98;;
66946;SDS011;53853;51.982;5.928;2023-04-06T07:13:39;18.73;;;13.70;;
66946;SDS011;53853;51.982;5.928;2023-04-06T07:16:10;18.63;;;13.15;;
66946;SDS011;53853;51.982;5.928;2023-04-06T07:18:42;18.52;;;13.52;;
66946;SDS011;53853;51.982;5.928;2023-04-06T07:21:12;16.73;;;13.40;;
66946;SDS011;53853;51.982;5.928;2023-04-06T07:23:42;18.75;;;14.30;;
66946;SDS011;53853;51.982;5.928;2023-04-06T07:26:13;21.85;;;13.35;;
66946;SDS011;53853;51.982;5.928;2023-04-06T07:28:43;21.10;;;14.50;;
66946;SDS011;53853;51.982;5.928;2023-04-06T07:31:13;18.10;;;14.18;;
66946;SDS011;53853;51.982;5.928;2023-04-06T07:33:46;20.33;;;14.68;;
66946;SDS011;53853;51.982;5.928;2023-04-06T07:36:17;14.30;;;12.15;;
66946;SDS011;53853;51.982;5.928;2023-04-06T07:38:48;17.90;;;12.32;;
66946;SDS011;53853;51.982;5.928;2023-04-06T07:41:18;16.27;;;12.57;;
66946;SDS011;53853;51.982;5.928;2023-04-06T07:43:49;19.55;;;14.93;;
66946;SDS011;53853;51.982;5.928;2023-04-06T07:46:19;16.88;;;13.07;;
66946;SDS011;53853;51.982;5.928;2023-04-06T07:48:52;19.83;;;14.10;;
66946;SDS011;53853;51.982;5.928;2023-04-06T07:51:22;17.38;;;13.50;;
66946;SDS011;53853;51.982;5.928;2023-04-06T07:53:52;15.05;;;13.20;;
66946;SDS011;53853;51.982;5.928;2023-04-06T07:56:22;22.08;;;15.43;;
66946;SDS011;53853;51.982;5.928;2023-04-06T07:58:51;18.13;;;14.43;;
66946;SDS011;53853;51.982;5.928;2023-04-06T08:01:22;18.33;;;13.13;;
66946;SDS011;53853;51.982;5.928;2023-04-06T08:03:55;15.70;;;11.68;;
66946;SDS011;53853;51.982;5.928;2023-04-06T08:06:28;15.38;;;11.18;;
66946;SDS011;53853;51.982;5.928;2023-04-06T08:08:57;16.45;;;12.90;;
66946;SDS011;53853;51.982;5.928;2023-04-06T08:11:27;17.67;;;12.52;;
66946;SDS011;53853;51.982;5.928;2023-04-06T08:13:57;17.05;;;13.15;;
66946;SDS011;53853;51.982;5.928;2023-04-06T08:16:27;13.57;;;11.32;;
66946;SDS011;53853;51.982;5.928;2023-04-06T08:18:59;20.60;;;14.25;;
66946;SDS011;53853;51.982;5.928;2023-04-06T08:21:30;21.85;;;14.57;;
66946;SDS011;53853;51.982;5.928;2023-04-06T08:24:00;19.25;;;13.98;;
66946;SDS011;53853;51.982;5.928;2023-04-06T08:26:31;17.27;;;14.27;;
66946;SDS011;53853;51.982;5.928;2023-04-06T08:29:01;18.58;;;14.50;;
66946;SDS011;53853;51.982;5.928;2023-04-06T08:31:33;17.17;;;13.13;;
66946;SDS011;53853;51.982;5.928;2023-04-06T08:34:05;15.68;;;12.43;;
66946;SDS011;53853;51.982;5.928;2023-04-06T08:36:35;16.80;;;12.32;;
66946;SDS011;53853;51.982;5.928;2023-04-06T08:39:05;24.85;;;15.27;;
66946;SDS011;53853;51.982;5.928;2023-04-06T08:41:35;17.15;;;12.85;;
66946;SDS011;53853;51.982;5.928;2023-04-06T08:44:05;18.65;;;13.25;;
66946;SDS011;53853;51.982;5.928;2023-04-06T08:46:35;19.25;;;13.98;;
66946;SDS011;53853;51.982;5.928;2023-04-06T08:49:07;19.13;;;12.82;;
66946;SDS011;53853;51.982;5.928;2023-04-06T08:51:37;15.15;;;11.55;;
66946;SDS011;53853;51.982;5.928;2023-04-06T08:54:08;14.63;;;11.57;;
66946;SDS011;53853;51.982;5.928;2023-04-06T08:56:38;16.38;;;12.23;;
66946;SDS011;53853;51.982;5.928;2023-04-06T08:59:08;15.10;;;12.30;;
66946;SDS011;53853;51.982;5.928;2023-04-06T09:01:39;16.90;;;13.40;;
66946;SDS011;53853;51.982;5.928;2023-04-06T09:04:14;24.65;;;18.67;;
66946;SDS011;53853;51.982;5.928;2023-04-06T09:06:44;21.35;;;14.75;;
66946;SDS011;53853;51.982;5.928;2023-04-06T09:09:15;16.17;;;12.82;;
66946;SDS011;53853;51.982;5.928;2023-04-06T09:11:46;16.40;;;11.93;;
66946;SDS011;53853;51.982;5.928;2023-04-06T09:14:32;18.23;;;14.80;;
66946;SDS011;53853;51.982;5.928;2023-04-06T09:17:04;18.35;;;14.32;;
66946;SDS011;53853;51.982;5.928;2023-04-06T09:19:44;17.67;;;12.80;;
66946;SDS011;53853;51.982;5.928;2023-04-06T09:22:14;19.42;;;15.07;;
66946;SDS011;53853;51.982;5.928;2023-04-06T09:24:45;18.63;;;14.15;;
66946;SDS011;53853;51.982;5.928;2023-04-06T09:27:16;20.33;;;14.60;;
66946;SDS011;53853;51.982;5.928;2023-04-06T09:29:47;19.70;;;14.43;;
66946;SDS011;53853;51.982;5.928;2023-04-06T09:32:17;20.85;;;16.17;;
66946;SDS011;53853;51.982;5.928;2023-04-06T09:34:49;19.50;;;14.90;;
66946;SDS011;53853;51.982;5.928;2023-04-06T09:37:19;23.08;;;17.42;;
66946;SDS011;53853;51.982;5.928;2023-04-06T09:39:49;18.52;;;13.90;;
66946;SDS011;53853;51.982;5.928;2023-04-06T09:42:23;18.65;;;14.65;;
66946;SDS011;53853;51.982;5.928;2023-04-06T09:44:54;16.90;;;13.75;;
66946;SDS011;53853;51.982;5.928;2023-04-06T09:47:24;15.95;;;13.10;;
66946;SDS011;53853;51.982;5.928;2023-04-06T09:49:58;14.63;;;12.50;;
66946;SDS011;53853;51.982;5.928;2023-04-06T09:52:30;20.10;;;14.27;;
66946;SDS011;53853;51.982;5.928;2023-04-06T09:55:02;18.95;;;16.10;;
66946;SDS011;53853;51.982;5.928;2023-04-06T09:57:35;18.65;;;14.75;;
66946;SDS011;53853;51.982;5.928;2023-04-06T10:00:14;19.63;;;15.48;;
66946;SDS011;53853;51.982;5.928;2023-04-06T10:02:50;20.80;;;13.73;;
66946;SDS011;53853;51.982;5.928;2023-04-06T10:05:30;18.30;;;15.20;;
66946;SDS011;53853;51.982;5.928;2023-04-06T10:08:06;19.45;;;15.77;;
66946;SDS011;53853;51.982;5.928;2023-04-06T10:10:38;19.40;;;15.07;;
66946;SDS011;53853;51.982;5.928;2023-04-06T10:13:08;17.75;;;15.63;;
66946;SDS011;53853;51.982;5.928;2023-04-06T10:15:39;23.90;;;18.92;;
66946;SDS011;53853;51.982;5.928;2023-04-06T10:18:10;24.10;;;18.20;;
66946;SDS011;53853;51.982;5.928;2023-04-06T10:20:47;25.88;;;19.50;;
66946;SDS011;53853;51.982;5.928;2023-04-06T10:23:21;27.77;;;18.08;;
66946;SDS011;53853;51.982;5.928;2023-04-06T10:25:59;26.73;;;18.70;;
66946;SDS011;53853;51.982;5.928;2023-04-06T10:28:30;23.02;;;17.20;;
66946;SDS011;53853;51.982;5.928;2023-04-06T10:31:02;21.48;;;17.58;;
66946;SDS011;53853;51.982;5.928;2023-04-06T10:33:34;18.52;;;14.55;;
66946;SDS011;53853;51.982;5.928;2023-04-06T10:36:13;21.05;;;15.30;;
66946;SDS011;53853;51.982;5.928;2023-04-06T10:38:53;21.48;;;15.77;;
66946;SDS011;53853;51.982;5.928;2023-04-06T10:41:31;17.33;;;14.40;;
66946;SDS011;53853;51.982;5.928;2023-04-06T10:44:02;18.95;;;15.50;;
66946;SDS011;53853;51.982;5.928;2023-04-06T10:46:32;19.42;;;16.10;;
66946;SDS011;53853;51.982;5.928;2023-04-06T10:49:11;21.60;;;15.90;;
66946;SDS011;53853;51.982;5.928;2023-04-06T10:51:44;21.33;;;16.70;;
66946;SDS011;53853;51.982;5.928;2023-04-06T10:54:20;21.23;;;15.95;;
66946;SDS011;53853;51.982;5.928;2023-04-06T10:56:51;19.98;;;15.25;;
66946;SDS011;53853;51.982;5.928;2023-04-06T10:59:22;18.15;;;13.90;;
66946;SDS011;53853;51.982;5.928;2023-04-06T11:01:52;19.00;;;15.18;;
66946;SDS011;53853;51.982;5.928;2023-04-06T11:04:22;18.55;;;14.27;;
66946;SDS011;53853;51.982;5.928;2023-04-06T11:06:56;17.67;;;14.68;;
66946;SDS011;53853;51.982;5.928;2023-04-06T11:09:26;18.58;;;14.35;;
66946;SDS011;53853;51.982;5.928;2023-04-06T11:11:57;22.73;;;14.10;;
66946;SDS011;53853;51.982;5.928;2023-04-06T11:14:27;18.23;;;14.70;;
66946;SDS011;53853;51.982;5.928;2023-04-06T11:16:57;17.58;;;14.13;;
66946;SDS011;53853;51.982;5.928;2023-04-06T11:19:27;17.60;;;14.60;;
66946;SDS011;53853;51.982;5.928;2023-04-06T11:22:06;17.63;;;14.50;;
66946;SDS011;53853;51.982;5.928;2023-04-06T11:24:36;15.55;;;12.93;;
66946;SDS011;53853;51.982;5.928;2023-04-06T11:27:06;16.60;;;13.95;;
66946;SDS011;53853;51.982;5.928;2023-04-06T11:29:35;19.05;;;13.48;;
66946;SDS011;53853;51.982;5.928;2023-04-06T11:32:06;16.27;;;13.60;;
66946;SDS011;53853;51.982;5.928;2023-04-06T11:34:37;16.63;;;13.07;;
66946;SDS011;53853;51.982;5.928;2023-04-06T11:37:11;16.92;;;12.88;;
66946;SDS011;53853;51.982;5.928;2023-04-06T11:39:43;17.40;;;12.75;;
66946;SDS011;53853;51.982;5.928;2023-04-06T11:42:22;15.70;;;12.65;;
66946;SDS011;53853;51.982;5.928;2023-04-06T11:44:54;13.90;;;11.68;;
66946;SDS011;53853;51.982;5.928;2023-04-06T11:47:27;15.68;;;11.80;;
66946;SDS011;53853;51.982;5.928;2023-04-06T11:50:04;12.47;;;10.90;;
66946;SDS011;53853;51.982;5.928;2023-04-06T11:52:38;14.45;;;11.13;;
66946;SDS011;53853;51.982;5.928;2023-04-06T11:55:10;13.30;;;11.18;;
66946;SDS011;53853;51.982;5.928;2023-04-06T11:57:42;15.02;;;11.52;;
66946;SDS011;53853;51.982;5.928;2023-04-06T12:00:12;15.45;;;11.00;;
66946;SDS011;53853;51.982;5.928;2023-04-06T12:02:45;19.35;;;11.27;;
66946;SDS011;53853;51.982;5.928;2023-04-06T12:05:15;15.93;;;11.77;;
66946;SDS011;53853;51.982;5.928;2023-04-06T12:07:48;15.80;;;11.80;;
66946;SDS011;53853;51.982;5.928;2023-04-06T12:10:18;13.02;;;10.30;;
66946;SDS011;53853;51.982;5.928;2023-04-06T12:12:48;10.98;;;9.07;;
66946;SDS011;53853;51.982;5.928;2023-04-06T12:15:18;16.73;;;11.32;;
66946;SDS011;53853;51.982;5.928;2023-04-06T12:17:47;12.95;;;10.30;;
66946;SDS011;53853;51.982;5.928;2023-04-06T12:20:18;13.43;;;10.52;;
66946;SDS011;53853;51.982;5.928;2023-04-06T12:22:50;15.75;;;10.57;;
66946;SDS011;53853;51.982;5.928;2023-04-06T12:25:20;13.50;;;10.55;;
66946;SDS011;53853;51.982;5.928;2023-04-06T12:27:50;15.65;;;11.27;;
66946;SDS011;53853;51.982;5.928;2023-04-06T12:30:20;13.65;;;10.75;;
66946;SDS011;53853;51.982;5.928;2023-04-06T12:32:50;12.68;;;10.43;;
66946;SDS011;53853;51.982;5.928;2023-04-06T12:35:20;11.20;;;9.80;;
66946;SDS011;53853;51.982;5.928;2023-04-06T12:37:53;13.05;;;9.50;;
66946;SDS011;53853;51.982;5.928;2023-04-06T12:40:22;13.70;;;9.77;;
66946;SDS011;53853;51.982;5.928;2023-04-06T12:42:52;13.05;;;9.98;;
66946;SDS011;53853;51.982;5.928;2023-04-06T12:45:22;11.20;;;8.75;;
66946;SDS011;53853;51.982;5.928;2023-04-06T12:47:52;11.07;;;8.63;;
66946;SDS011;53853;51.982;5.928;2023-04-06T12:50:22;9.57;;;6.70;;
66946;SDS011;53853;51.982;5.928;2023-04-06T12:52:54;8.43;;;6.75;;
66946;SDS011;53853;51.982;5.928;2023-04-06T12:55:24;8.38;;;5.65;;
66946;SDS011;53853;51.982;5.928;2023-04-06T12:57:54;10.68;;;7.18;;
66946;SDS011;53853;51.982;5.928;2023-04-06T13:00:24;10.88;;;6.68;;
66946;SDS011;53853;51.982;5.928;2023-04-06T13:02:54;9.13;;;6.28;;
66946;SDS011;53853;51.982;5.928;2023-04-06T13:05:24;10.65;;;7.40;;
66946;SDS011;53853;51.982;5.928;2023-04-06T13:07:56;7.50;;;5.75;;
66946;SDS011;53853;51.982;5.928;2023-04-06T13:10:26;9.18;;;6.25;;
66946;SDS011;53853;51.982;5.928;2023-04-06T13:12:56;9.63;;;6.32;;
66946;SDS011;53853;51.982;5.928;2023-04-06T13:15:26;8.55;;;6.47;;
66946;SDS011;53853;51.982;5.928;2023-04-06T13:17:56;6.68;;;4.95;;
66946;SDS011;53853;51.982;5.928;2023-04-06T13:20:26;7.15;;;5.88;;
66946;SDS011;53853;51.982;5.928;2023-04-06T13:22:59;7.95;;;6.13;;
66946;SDS011;53853;51.982;5.928;2023-04-06T13:25:29;10.90;;;7.68;;
66946;SDS011;53853;51.982;5.928;2023-04-06T13:27:59;8.60;;;6.47;;
66946;SDS011;53853;51.982;5.928;2023-04-06T13:30:29;10.23;;;7.07;;
66946;SDS011;53853;51.982;5.928;2023-04-06T13:32:59;9.65;;;5.90;;
66946;SDS011;53853;51.982;5.928;2023-04-06T13:35:30;7.80;;;6.63;;
66946;SDS011;53853;51.982;5.928;2023-04-06T13:38:04;8.45;;;6.32;;
66946;SDS011;53853;51.982;5.928;2023-04-06T13:40:33;10.63;;;7.55;;
66946;SDS011;53853;51.982;5.928;2023-04-06T13:43:03;9.38;;;6.25;;
66946;SDS011;53853;51.982;5.928;2023-04-06T13:45:33;9.60;;;7.45;;
66946;SDS011;53853;51.982;5.928;2023-04-06T13:48:03;9.45;;;6.90;;
66946;SDS011;53853;51.982;5.928;2023-04-06T13:50:33;7.60;;;5.85;;
66946;SDS011;53853;51.982;5.928;2023-04-06T13:53:06;7.60;;;5.72;;
66946;SDS011;53853;51.982;5.928;2023-04-06T13:55:36;9.57;;;6.63;;
66946;SDS011;53853;51.982;5.928;2023-04-06T13:58:06;10.52;;;8.45;;
66946;SDS011;53853;51.982;5.928;2023-04-06T14:00:35;10.88;;;8.57;;
66946;SDS011;53853;51.982;5.928;2023-04-06T14:03:06;10.50;;;8.63;;
66946;SDS011;53853;51.982;5.928;2023-04-06T14:05:36;8.82;;;6.85;;
66946;SDS011;53853;51.982;5.928;2023-04-06T14:08:08;13.57;;;9.18;;
66946;SDS011;53853;51.982;5.928;2023-04-06T14:10:38;11.52;;;7.97;;
66946;SDS011;53853;51.982;5.928;2023-04-06T14:13:09;11.15;;;9.25;;
66946;SDS011;53853;51.982;5.928;2023-04-06T14:15:39;12.90;;;9.80;;
66946;SDS011;53853;51.982;5.928;2023-04-06T14:18:09;11.73;;;9.43;;
66946;SDS011;53853;51.982;5.928;2023-04-06T14:20:39;10.63;;;9.30;;
66946;SDS011;53853;51.982;5.928;2023-04-06T14:23:12;12.98;;;9.60;;
66946;SDS011;53853;51.982;5.928;2023-04-06T14:25:42;12.00;;;8.23;;
66946;SDS011;53853;51.982;5.928;2023-04-06T14:28:11;9.82;;;8.18;;
66946;SDS011;53853;51.982;5.928;2023-04-06T14:30:42;10.20;;;7.75;;
66946;SDS011;53853;51.982;5.928;2023-04-06T14:33:12;8.82;;;7.30;;
66946;SDS011;53853;51.982;5.928;2023-04-06T14:35:42;10.38;;;7.93;;
66946;SDS011;53853;51.982;5.928;2023-04-06T14:38:14;11.77;;;8.20;;
66946;SDS011;53853;51.982;5.928;2023-04-06T14:40:44;12.77;;;9.95;;
66946;SDS011;53853;51.982;5.928;2023-04-06T14:43:14;9.18;;;8.05;;
66946;SDS011;53853;51.982;5.928;2023-04-06T14:45:44;11.65;;;9.75;;
66946;SDS011;53853;51.982;5.928;2023-04-06T14:48:14;9.52;;;8.32;;
66946;SDS011;53853;51.982;5.928;2023-04-06T14:50:51;11.02;;;8.43;;
66946;SDS011;53853;51.982;5.928;2023-04-06T14:53:24;10.25;;;8.00;;
66946;SDS011;53853;51.982;5.928;2023-04-06T14:55:54;10.75;;;8.95;;
66946;SDS011;53853;51.982;5.928;2023-04-06T14:58:25;12.65;;;9.80;;
66946;SDS011;53853;51.982;5.928;2023-04-06T15:00:55;10.40;;;7.78;;